Pha Sing, Thailand

4:56 AM ICT on August 25, 2016 (GMT +0700)
Phrae | | Change Station

Elev 531 ft 18.13 °N, 100.16 °E | Updated 56 minutes ago

Thunderstorm
Thunderstorm
75 °F
Feels Like 75 °F
N
5
Wind Variable Wind from North
Gusts mph

Today
High -- | Low -- °F
--% Chance of Precip.
Yesterday
High -- | Low -- °F
Precip. -- in
Pressure 29.65 in
Visibility 3.7 miles
Clouds
Dew Point 75 °F
Humidity 100%
Rainfall 0.00 in
Snow Depth Not available.
6:00 AM 6:36 PM
Waning Gibbous, 53% visible
METAR VTCP 242100Z AUTO 35004KT 320V050 6000 // ////// 24/24 Q1004
Pressure 29.65 in
Visibility 3.7 miles
Clouds
Dew Point 75 °F
Humidity 100%
Rainfall 0.00 in
Snow Depth Not available.
6:00 AM 6:36 PM
Waning Gibbous, 53% visible
METAR VTCP 242100Z AUTO 35004KT 320V050 6000 // ////// 24/24 Q1004

10-Day Weather Forecast

No radar image for this location.
×

Almanac

Astronomy

Aug. 25, 2016 Rise Set
Actual Time
Civil Twilight
Nautical Twilight
Astronomical Twilight
Moon
Length of Visible Light
Length of Day
Tomorrow will be .
, % of the Moon is Illuminated

Today's Extremes

Country Highs Country Lows

Community

WunderPhotos

Upload Photos

1,934,722 photos uploaded!

WunderBlog® & News

Nearby

Air Quality

  Air Quality AQ Index Pollutant
Not available.

Snow Depth

Station Depth Elevation

Earthquake Activity

City Distance Mag. Time & Date
Minimum magnitude displayed is 2.5.

Coastal Water Temperatures

Place Temperature

Stations

Nearby Weather Stations

Station Location Temp. Windchill Dew Point Humidity Wind Precip. Elev Updated Type